createdAt,value
2019-01-30T00:02:06.275Z,13.40
2019-01-30T00:07:07.627Z,13.60
2019-01-30T00:12:09.888Z,13.60
2019-01-30T00:17:11.554Z,13.10
2019-01-30T00:22:12.796Z,13.30
2019-01-30T00:27:14.160Z,12.70
2019-01-30T00:32:15.400Z,12.70
2019-01-30T00:37:16.676Z,12.80
2019-01-30T00:42:17.920Z,12.40
2019-01-30T00:47:19.158Z,12.20
2019-01-30T00:52:20.415Z,10.30
2019-01-30T00:57:21.681Z,9.70
2019-01-30T01:02:23.253Z,9.50
2019-01-30T01:07:24.581Z,8.60
2019-01-30T01:12:25.930Z,8.70
2019-01-30T01:17:27.180Z,8.60
2019-01-30T01:22:28.544Z,8.90
2019-01-30T01:27:29.816Z,9.40
2019-01-30T01:32:31.059Z,9.80
2019-01-30T01:37:32.301Z,10.30
2019-01-30T01:42:33.601Z,10.00
2019-01-30T01:47:35.006Z,9.20
2019-01-30T01:52:36.189Z,9.00
2019-01-30T01:57:37.736Z,8.70
2019-01-30T02:02:38.995Z,8.20
2019-01-30T02:07:40.449Z,7.90
2019-01-30T02:12:41.697Z,8.40
2019-01-30T02:17:43.031Z,7.90
2019-01-30T02:22:44.662Z,7.60
2019-01-30T02:27:46.114Z,7.80
2019-01-30T02:32:47.501Z,7.50
2019-01-30T02:37:49.146Z,7.20
2019-01-30T02:42:50.402Z,7.40
2019-01-30T02:47:52.056Z,7.30
2019-01-30T02:52:53.299Z,7.40
2019-01-30T02:57:54.554Z,7.40
2019-01-30T03:02:55.984Z,7.20
2019-01-30T03:07:57.282Z,7.20
2019-01-30T03:12:58.543Z,6.80
2019-01-30T03:17:59.777Z,7.10
2019-01-30T03:23:01.017Z,7.20
2019-01-30T03:28:02.565Z,7.00
2019-01-30T03:33:03.823Z,7.00
2019-01-30T03:38:05.378Z,6.90
2019-01-30T03:43:06.598Z,7.00
2019-01-30T03:48:07.849Z,6.90
2019-01-30T03:53:09.082Z,6.60
2019-01-30T03:58:10.344Z,6.60
2019-01-30T04:03:11.610Z,6.70
2019-01-30T04:08:12.840Z,6.70
2019-01-30T04:13:14.082Z,6.90
2019-01-30T04:18:15.417Z,6.80
2019-01-30T04:23:16.658Z,6.90
2019-01-30T04:28:17.880Z,7.00
2019-01-30T04:33:19.112Z,6.90
2019-01-30T04:38:20.346Z,6.60
2019-01-30T04:43:21.576Z,6.70
2019-01-30T04:48:22.916Z,7.00
2019-01-30T04:53:24.155Z,7.00
2019-01-30T04:58:25.393Z,7.10
2019-01-30T05:03:26.646Z,7.00
2019-01-30T05:08:27.876Z,7.00
2019-01-30T05:13:29.131Z,7.10
2019-01-30T05:18:30.451Z,6.90
2019-01-30T05:23:31.795Z,6.70
2019-01-30T05:28:33.038Z,6.60
2019-01-30T05:33:34.306Z,6.80
2019-01-30T05:38:35.542Z,6.90
2019-01-30T05:43:36.780Z,6.80
2019-01-30T05:48:38.066Z,7.10
2019-01-30T05:53:39.343Z,6.30
2019-01-30T05:58:40.592Z,6.50
2019-01-30T06:03:41.820Z,6.70
2019-01-30T06:08:43.076Z,6.10
2019-01-30T06:13:44.299Z,5.40
2019-01-30T06:18:45.554Z,6.10
2019-01-30T06:23:46.793Z,6.10
2019-01-30T06:28:48.037Z,5.40
2019-01-30T06:33:49.259Z,3.60
2019-01-30T06:38:50.532Z,3.90
2019-01-30T06:43:51.768Z,5.70
2019-01-30T06:48:53.036Z,6.80
2019-01-30T06:53:54.285Z,7.50
2019-01-30T06:58:55.540Z,7.80
2019-01-30T07:03:56.784Z,8.40
2019-01-30T07:08:58.036Z,10.60
2019-01-30T07:13:59.276Z,13.20
2019-01-30T07:19:00.531Z,14.00
2019-01-30T07:24:01.868Z,15.20
2019-01-30T07:29:03.522Z,15.20
2019-01-30T07:34:04.757Z,16.20
2019-01-30T07:39:07.412Z,16.30
2019-01-30T07:44:08.689Z,17.00
2019-01-30T07:49:09.917Z,17.20
2019-01-30T07:54:11.162Z,17.30
2019-01-30T07:59:12.408Z,17.30
2019-01-30T08:04:13.632Z,17.40
2019-01-30T08:09:14.889Z,17.40
2019-01-30T08:14:16.137Z,17.40
2019-01-30T08:19:17.415Z,17.50
2019-01-30T08:24:18.955Z,17.40
2019-01-30T08:29:20.878Z,17.40
2019-01-30T08:34:22.141Z,17.50
2019-01-30T08:39:23.374Z,17.40
2019-01-30T08:44:24.747Z,17.40
2019-01-30T08:49:26.004Z,17.40
2019-01-30T08:54:27.256Z,17.30
2019-01-30T08:59:28.506Z,17.30
2019-01-30T09:04:30.057Z,16.90
2019-01-30T09:09:31.298Z,17.00
2019-01-30T09:14:32.536Z,17.10
2019-01-30T09:19:33.793Z,17.10
2019-01-30T09:24:35.133Z,17.00
2019-01-30T09:29:36.385Z,16.60
2019-01-30T09:34:37.626Z,16.00
2019-01-30T09:39:38.884Z,16.00
2019-01-30T09:44:40.178Z,15.20
2019-01-30T09:49:41.427Z,15.30
2019-01-30T09:54:42.667Z,15.00
2019-01-30T09:59:43.892Z,13.10
2019-01-30T10:04:45.155Z,14.00
2019-01-30T10:09:46.391Z,13.00
2019-01-30T10:14:47.742Z,14.10
2019-01-30T10:19:48.989Z,13.10
2019-01-30T10:24:50.691Z,13.30
2019-01-30T10:29:51.987Z,13.10
2019-01-30T10:34:53.230Z,14.30
2019-01-30T10:39:54.498Z,13.80
2019-01-30T10:44:55.771Z,14.10
2019-01-30T10:49:57.009Z,14.50
2019-01-30T10:54:58.281Z,14.50
2019-01-30T10:59:59.548Z,13.70
2019-01-30T11:05:00.799Z,14.30
2019-01-30T11:10:06.847Z,14.70
2019-01-30T11:15:12.924Z,14.10
2019-01-30T11:20:17.472Z,14.90
2019-01-30T11:25:30.223Z,13.20
2019-01-30T11:30:32.004Z,13.40
2019-01-30T11:35:33.327Z,13.30
2019-01-30T11:40:35.673Z,13.70
2019-01-30T11:45:42.621Z,17.60
2019-01-30T11:50:43.965Z,10.10
2019-01-30T11:55:45.223Z,10.10
2019-01-30T12:00:50.985Z,11.80
2019-01-30T12:05:52.254Z,11.50
2019-01-30T12:10:53.530Z,12.10
2019-01-30T12:15:54.982Z,12.70
2019-01-30T12:20:56.234Z,12.00
2019-01-30T12:25:57.572Z,12.10
2019-01-30T12:30:58.808Z,9.90
2019-01-30T12:36:00.037Z,8.80
2019-01-30T12:41:01.290Z,9.10
2019-01-30T12:46:02.933Z,11.90
2019-01-30T12:51:04.205Z,8.90
2019-01-30T12:56:05.467Z,8.50
2019-01-30T13:01:06.964Z,8.00
2019-01-30T13:06:08.196Z,5.70
2019-01-30T13:11:09.563Z,8.20
2019-01-30T13:16:13.569Z,8.30
2019-01-30T13:21:14.829Z,10.90
2019-01-30T13:26:16.089Z,8.60
2019-01-30T13:31:17.385Z,9.10
2019-01-30T13:36:18.748Z,9.10
2019-01-30T13:41:20.327Z,9.80
2019-01-30T13:46:21.867Z,9.90
2019-01-30T13:51:23.097Z,10.30
2019-01-30T13:56:24.383Z,10.50
2019-01-30T14:01:26.360Z,10.80
2019-01-30T14:06:27.590Z,11.30
2019-01-30T14:11:28.959Z,10.10
2019-01-30T14:16:30.425Z,11.30
2019-01-30T14:21:31.761Z,10.50
2019-01-30T14:26:33.030Z,10.60
2019-01-30T14:31:34.262Z,11.20
2019-01-30T14:36:35.529Z,11.50
2019-01-30T14:41:36.859Z,11.90
2019-01-30T14:46:39.141Z,12.50
2019-01-30T14:51:40.441Z,13.70
2019-01-30T14:56:41.776Z,14.70
2019-01-30T15:01:43.010Z,15.10
2019-01-30T15:06:44.295Z,15.80
2019-01-30T15:11:45.513Z,17.10
2019-01-30T15:16:46.732Z,17.60
2019-01-30T15:21:48.107Z,17.80
2019-01-30T15:26:49.359Z,18.00
2019-01-30T15:31:50.647Z,18.20
2019-01-30T15:36:51.901Z,18.10
2019-01-30T15:41:53.144Z,18.10
2019-01-30T15:46:54.434Z,17.90
2019-01-30T15:51:55.686Z,17.60
2019-01-30T15:56:57.040Z,17.50
2019-01-30T16:01:58.351Z,17.80
2019-01-30T16:06:59.592Z,16.80
2019-01-30T16:12:00.946Z,17.40
2019-01-30T16:17:02.543Z,17.80
2019-01-30T16:22:04.902Z,18.00
2019-01-30T16:27:06.204Z,18.10
2019-01-30T16:32:07.472Z,18.20
2019-01-30T16:37:09.065Z,18.20
2019-01-30T16:42:10.321Z,18.10
2019-01-30T16:47:11.587Z,18.60
2019-01-30T16:52:12.834Z,18.20
2019-01-30T16:57:14.149Z,18.20
2019-01-30T17:02:15.388Z,18.20
2019-01-30T17:07:16.656Z,18.20
2019-01-30T17:12:17.935Z,18.20
2019-01-30T17:17:19.223Z,18.20
2019-01-30T17:22:20.473Z,18.20
2019-01-30T17:27:21.757Z,18.20
2019-01-30T17:32:23.028Z,18.20
2019-01-30T17:37:24.305Z,18.20
2019-01-30T17:42:25.679Z,18.10
2019-01-30T17:47:26.934Z,18.10
2019-01-30T17:52:28.185Z,17.80
2019-01-30T17:57:29.463Z,17.80
2019-01-30T18:02:30.721Z,17.60
2019-01-30T18:07:32.114Z,17.50
2019-01-30T18:12:33.410Z,17.40
2019-01-30T18:17:34.711Z,17.40
2019-01-30T18:22:36.060Z,17.60
2019-01-30T18:27:37.343Z,17.80
2019-01-30T18:32:38.604Z,18.10
2019-01-30T18:37:39.988Z,18.20
2019-01-30T18:42:42.060Z,18.10
2019-01-30T18:47:43.348Z,18.00
2019-01-30T18:52:44.799Z,17.80
2019-01-30T18:57:47.105Z,17.50
2019-01-30T19:02:48.883Z,17.50
2019-01-30T19:07:50.175Z,17.20
2019-01-30T19:12:51.561Z,17.30
2019-01-30T19:17:53.033Z,17.30
2019-01-30T19:22:54.302Z,18.10
2019-01-30T19:27:56.236Z,18.20
2019-01-30T19:32:58.010Z,18.30
2019-01-30T19:37:59.280Z,18.20
2019-01-30T19:43:00.657Z,18.20
2019-01-30T19:48:02.351Z,18.10
2019-01-30T19:53:05.925Z,17.70
2019-01-30T19:58:07.619Z,16.10
2019-01-30T20:03:13.239Z,15.50
2019-01-30T20:08:15.040Z,14.50
2019-01-30T20:13:16.411Z,13.90
2019-01-30T20:18:17.811Z,13.00
2019-01-30T20:23:19.172Z,11.70
2019-01-30T20:28:20.709Z,12.30
2019-01-30T20:33:22.081Z,12.20
2019-01-30T20:38:23.415Z,11.00
2019-01-30T20:43:24.721Z,11.50
2019-01-30T20:48:26.120Z,11.30
2019-01-30T20:53:27.388Z,11.10
2019-01-30T20:58:28.666Z,10.80
2019-01-30T21:03:29.928Z,10.10
2019-01-30T21:08:31.228Z,9.80
2019-01-30T21:13:32.471Z,9.30
2019-01-30T21:18:33.858Z,9.30
2019-01-30T21:23:35.119Z,9.50
2019-01-30T21:28:36.417Z,9.20
2019-01-30T21:33:37.683Z,9.20
2019-01-30T21:38:39.051Z,8.60
2019-01-30T21:43:40.346Z,8.80
2019-01-30T21:48:41.611Z,8.80
2019-01-30T21:53:42.861Z,8.50
2019-01-30T21:58:44.122Z,8.30
2019-01-30T22:03:45.458Z,8.10
2019-01-30T22:08:46.718Z,8.10
2019-01-30T22:13:47.981Z,8.10
2019-01-30T22:18:49.233Z,8.20
2019-01-30T22:23:50.485Z,7.80
2019-01-30T22:28:51.763Z,7.80
2019-01-30T22:33:53.038Z,7.70
2019-01-30T22:38:54.278Z,8.10
2019-01-30T22:43:55.542Z,8.80
2019-01-30T22:48:56.797Z,9.00
2019-01-30T22:53:58.048Z,9.60
2019-01-30T22:58:59.329Z,10.40
2019-01-30T23:04:09.324Z,10.80
2019-01-30T23:09:41.674Z,12.70
2019-01-30T23:14:51.407Z,13.20
2019-01-30T23:19:58.153Z,13.70
2019-01-30T23:25:23.626Z,14.10
2019-01-30T23:30:56.822Z,14.50
2019-01-30T23:36:26.954Z,14.20
2019-01-30T23:41:44.941Z,14.90
2019-01-30T23:47:27.651Z,15.40
2019-01-30T23:53:08.109Z,16.00
2019-01-30T23:58:44.068Z,16.50
